Time;durP1;ratioP1;P1;durP2;ratioP2;P2;SDS_P1;SDS_P2;PMS_P1;PMS_P2;Temp;Humidity;BMP_temperature;BMP_pressure;BME280_temperature;BME280_humidity;BME280_pressure;Samples;Min_cycle;Max_cycle;Signal;HPM_P1;HPM_P2
2022/03/27 00:02:55;;;;;;;25.73;10.73;;;;;4.20;97456.00;;;;8344414;28;20229;-75
2022/03/27 00:07:00;;;;;;;28.50;10.80;;;;;4.00;97453.00;;;;8347842;28;20224;-71
2022/03/27 00:15:24;;;;;;;33.23;11.50;;;;;3.90;97456.00;;;;8350464;28;20660;-70
2022/03/27 00:19:27;;;;;;;31.60;12.33;;;;;3.90;97452.00;;;;8342887;28;20231;-71
2022/03/27 00:23:31;;;;;;;26.80;11.03;;;;;3.80;97452.00;;;;8349220;28;20662;-70
2022/03/27 00:27:36;;;;;;;29.23;11.57;;;;;3.80;97456.00;;;;8345222;28;20232;-72
2022/03/27 00:31:44;;;;;;;34.17;11.33;;;;;3.70;97459.00;;;;8345394;28;20225;-71
2022/03/27 00:35:47;;;;;;;30.07;10.90;;;;;3.70;97452.00;;;;8345433;28;20244;-74
2022/03/27 00:39:51;;;;;;;31.23;11.80;;;;;3.70;97459.00;;;;8346738;28;20476;-71
2022/03/27 00:43:54;;;;;;;26.87;10.70;;;;;3.60;97450.00;;;;8347962;28;20228;-72
2022/03/27 00:47:57;;;;;;;27.73;10.87;;;;;3.70;97449.00;;;;8346284;28;20654;-74
2022/03/27 00:52:01;;;;;;;31.73;11.57;;;;;3.80;97448.00;;;;8346149;28;20279;-75
2022/03/27 00:56:06;;;;;;;33.17;12.77;;;;;3.90;97445.00;;;;8348121;28;20228;-72
2022/03/27 01:00:11;;;;;;;34.03;11.27;;;;;3.90;97447.00;;;;8348312;28;20267;-75
2022/03/27 01:04:15;;;;;;;34.20;11.57;;;;;4.00;97443.00;;;;8348072;28;20733;-74
2022/03/27 01:09:35;;;;;;;32.23;12.57;;;;;4.00;97443.00;;;;8345686;28;20229;-71
2022/03/27 01:12:45;;;;;;;30.03;11.43;;;;;4.00;97435.00;;;;8344083;28;20324;-72
2022/03/27 01:16:58;;;;;;;27.83;10.83;;;;;4.00;97435.00;;;;8348774;28;20281;-73
2022/03/27 01:21:03;;;;;;;31.00;11.43;;;;;3.90;97429.00;;;;8344467;28;20249;-72
2022/03/27 01:25:06;;;;;;;28.47;11.33;;;;;3.80;97425.00;;;;8348182;28;20227;-71
2022/03/27 01:29:10;;;;;;;29.63;11.47;;;;;3.60;97422.00;;;;8342182;28;20567;-71
2022/03/27 01:33:13;;;;;;;25.27;10.57;;;;;3.60;97425.00;;;;8340396;28;20308;-73
2022/03/27 01:37:18;;;;;;;35.83;11.90;;;;;3.50;97423.00;;;;8347910;28;20237;-74
2022/03/27 01:41:24;;;;;;;31.00;12.10;;;;;3.40;97421.00;;;;8342322;28;20700;-72
2022/03/27 01:45:31;;;;;;;35.77;13.70;;;;;3.20;97424.00;;;;8343707;28;20300;-73
2022/03/27 01:49:35;;;;;;;35.67;12.03;;;;;3.00;97420.00;;;;8353280;28;20227;-71
2022/03/27 01:53:40;;;;;;;41.20;12.87;;;;;2.80;97414.00;;;;8346628;28;20911;-73
2022/03/27 01:57:43;;;;;;;29.97;11.03;;;;;2.60;97420.00;;;;8347814;28;22962;-71
2022/03/27 02:01:46;;;;;;;24.80;11.00;;;;;2.50;97418.00;;;;8346015;28;20247;-76
2022/03/27 02:05:50;;;;;;;29.93;11.40;;;;;2.40;97413.00;;;;8341376;28;20239;-73
2022/03/27 02:09:54;;;;;;;36.73;11.63;;;;;2.30;97419.00;;;;8345225;28;20226;-73
2022/03/27 02:13:57;;;;;;;32.60;12.13;;;;;2.20;97416.00;;;;8342578;28;20243;-75
2022/03/27 02:18:02;;;;;;;32.20;12.53;;;;;2.20;97417.00;;;;8345554;28;20254;-74
2022/03/27 02:22:06;;;;;;;29.73;11.57;;;;;2.10;97415.00;;;;8344779;28;20224;-75
2022/03/27 02:26:11;;;;;;;31.40;12.70;;;;;2.10;97427.00;;;;8348229;28;20232;-73
2022/03/27 02:30:15;;;;;;;30.70;12.23;;;;;2.20;97424.00;;;;8343041;28;20870;-73
2022/03/27 02:34:18;;;;;;;28.87;11.33;;;;;2.20;97426.00;;;;8342428;28;20224;-70
2022/03/27 02:38:21;;;;;;;35.80;11.97;;;;;2.10;97425.00;;;;8345990;28;20235;-70
2022/03/27 02:42:26;;;;;;;31.67;12.47;;;;;1.90;97413.00;;;;8346080;28;20228;-70
2022/03/27 02:46:29;;;;;;;32.90;12.33;;;;;1.80;97418.00;;;;8347946;28;20597;-70
2022/03/27 02:50:33;;;;;;;39.13;11.97;;;;;1.80;97415.00;;;;8345888;28;20282;-75
2022/03/27 02:54:36;;;;;;;42.93;12.73;;;;;1.80;97416.00;;;;8342901;28;20234;-82
2022/03/27 02:58:42;;;;;;;30.93;12.00;;;;;1.90;97411.00;;;;8343088;28;20232;-71
2022/03/27 03:02:45;;;;;;;35.67;12.07;;;;;2.00;97406.00;;;;8375323;22;20223;-75
2022/03/27 03:06:49;;;;;;;29.73;12.23;;;;;2.00;97407.00;;;;8375255;28;20332;-75
2022/03/27 03:10:53;;;;;;;32.73;11.63;;;;;2.00;97407.00;;;;8374863;28;20223;-77
2022/03/27 03:14:58;;;;;;;27.67;11.73;;;;;1.90;97407.00;;;;8373834;28;20584;-72
2022/03/27 03:19:01;;;;;;;37.40;12.60;;;;;2.00;97401.00;;;;8371102;28;20226;-79
2022/03/27 03:23:04;;;;;;;31.73;12.10;;;;;2.00;97410.00;;;;8376224;28;20738;-75
2022/03/27 03:27:07;;;;;;;37.47;12.30;;;;;2.00;97406.00;;;;8378257;28;20224;-77
2022/03/27 03:31:12;;;;;;;32.33;12.03;;;;;2.00;97403.00;;;;8374204;28;20223;-72
2022/03/27 03:35:15;;;;;;;32.47;12.43;;;;;2.00;97406.00;;;;8370166;28;20235;-76
2022/03/27 03:39:38;;;;;;;35.00;12.83;;;;;1.90;97400.00;;;;8374426;28;20232;-80
2022/03/27 03:43:42;;;;;;;32.00;12.57;;;;;1.80;97401.00;;;;8380446;28;20227;-79
2022/03/27 03:47:46;;;;;;;38.53;12.23;;;;;1.80;97395.00;;;;8375384;28;20238;-73
2022/03/27 03:51:49;;;;;;;30.13;11.67;;;;;1.90;97397.00;;;;8375220;28;20838;-73
2022/03/27 03:55:52;;;;;;;31.63;11.83;;;;;1.90;97400.00;;;;8377678;28;20235;-72
2022/03/27 03:59:56;;;;;;;40.20;13.17;;;;;1.90;97400.00;;;;8377670;28;20230;-73
2022/03/27 04:04:00;;;;;;;33.47;12.50;;;;;1.90;97404.00;;;;8372092;28;20238;-73
2022/03/27 04:08:04;;;;;;;29.80;11.73;;;;;1.90;97404.00;;;;8371236;28;20973;-71
2022/03/27 04:12:08;;;;;;;32.47;12.27;;;;;1.90;97406.00;;;;8373033;28;20227;-71
2022/03/27 04:16:11;;;;;;;29.40;12.00;;;;;1.80;97405.00;;;;8376742;28;20236;-70
2022/03/27 04:20:17;;;;;;;32.30;12.43;;;;;1.70;97402.00;;;;8375348;28;20568;-72
2022/03/27 04:24:20;;;;;;;31.03;12.17;;;;;1.60;97413.00;;;;8377171;28;20636;-73
2022/03/27 04:28:23;;;;;;;43.43;13.10;;;;;1.50;97412.00;;;;8374424;28;20246;-71
2022/03/27 04:32:26;;;;;;;40.57;13.20;;;;;1.40;97408.00;;;;8377615;28;20247;-73
2022/03/27 04:36:31;;;;;;;33.50;13.33;;;;;1.40;97407.00;;;;8377647;28;20244;-71
2022/03/27 04:40:34;;;;;;;35.23;12.67;;;;;1.40;97407.00;;;;8371392;28;20318;-74
2022/03/27 04:44:37;;;;;;;32.43;12.77;;;;;1.50;97417.00;;;;8381383;28;20311;-72
2022/03/27 04:48:41;;;;;;;35.37;13.20;;;;;1.60;97414.00;;;;8350119;28;20230;-71
2022/03/27 04:52:45;;;;;;;34.93;12.77;;;;;1.60;97419.00;;;;8375631;28;20228;-72
2022/03/27 04:56:48;;;;;;;38.50;13.67;;;;;1.70;97418.00;;;;8378983;28;20240;-72
2022/03/27 05:00:52;;;;;;;37.23;13.17;;;;;1.80;97417.00;;;;8377567;28;20684;-75
2022/03/27 05:04:56;;;;;;;34.53;13.17;;;;;1.90;97420.00;;;;8378376;28;21026;-73
2022/03/27 05:09:00;;;;;;;34.90;12.43;;;;;2.00;97418.00;;;;8378235;28;20227;-71
2022/03/27 05:13:04;;;;;;;32.03;13.43;;;;;2.10;97427.00;;;;8373909;28;20232;-74
2022/03/27 05:17:07;;;;;;;32.03;12.87;;;;;2.20;97423.00;;;;8373385;28;20234;-71
2022/03/27 05:21:10;;;;;;;39.10;12.97;;;;;2.30;97434.00;;;;8374110;28;20746;-72
2022/03/27 05:25:16;;;;;;;33.00;12.23;;;;;2.40;97434.00;;;;8372017;28;20235;-74
2022/03/27 05:29:19;;;;;;;34.83;13.50;;;;;2.50;97440.00;;;;8374940;28;20224;-73
2022/03/27 05:33:22;;;;;;;31.63;12.83;;;;;2.90;97436.00;;;;8370998;28;20231;-73
2022/03/27 05:37:26;;;;;;;31.30;12.43;;;;;3.10;97434.00;;;;8369078;28;20946;-71
2022/03/27 05:41:30;;;;;;;29.30;11.70;;;;;3.30;97439.00;;;;8369862;28;20921;-72
2022/03/27 05:45:35;;;;;;;32.57;12.00;;;;;3.20;97441.00;;;;8368799;28;20229;-72
2022/03/27 05:49:39;;;;;;;31.00;10.80;;;;;3.20;97445.00;;;;8376625;28;20311;-71
2022/03/27 05:53:43;;;;;;;28.10;10.90;;;;;3.20;97453.00;;;;8371860;28;20998;-72
2022/03/27 05:57:47;;;;;;;32.83;12.40;;;;;3.20;97448.00;;;;8370667;28;20290;-71
2022/03/27 06:01:50;;;;;;;31.10;11.80;;;;;3.30;97443.00;;;;8373606;28;20239;-72
2022/03/27 06:05:54;;;;;;;34.13;12.03;;;;;3.40;97444.00;;;;8376490;28;20982;-73
2022/03/27 06:09:57;;;;;;;28.10;11.70;;;;;3.50;97452.00;;;;8373458;28;20717;-72
2022/03/27 06:14:01;;;;;;;28.67;10.90;;;;;3.60;97456.00;;;;8366829;28;20223;-70
2022/03/27 06:18:04;;;;;;;25.73;11.17;;;;;3.90;97452.00;;;;8369067;28;20342;-71
2022/03/27 06:22:08;;;;;;;27.17;11.07;;;;;4.20;97460.00;;;;8371860;28;20216;-71
2022/03/27 06:26:11;;;;;;;29.50;11.93;;;;;4.60;97463.00;;;;8375812;28;20722;-71
2022/03/27 06:30:17;;;;;;;26.07;11.13;;;;;4.90;97473.00;;;;8373224;28;20247;-72
2022/03/27 06:34:20;;;;;;;22.40;10.10;;;;;5.20;97472.00;;;;8373878;28;20228;-71
2022/03/27 06:38:23;;;;;;;27.63;11.30;;;;;5.50;97488.00;;;;8373205;28;20357;-71
2022/03/27 06:42:27;;;;;;;24.23;11.43;;;;;5.70;97494.00;;;;8371580;28;20217;-71
2022/03/27 06:46:31;;;;;;;30.57;11.83;;;;;6.00;97494.00;;;;8377802;28;20584;-70
2022/03/27 06:50:35;;;;;;;24.33;11.73;;;;;6.30;97490.00;;;;8368979;28;20317;-71
2022/03/27 06:54:38;;;;;;;26.30;10.50;;;;;6.70;97487.00;;;;8369280;28;21015;-72
2022/03/27 06:58:41;;;;;;;28.23;11.13;;;;;7.10;97484.00;;;;8377809;28;20245;-72
2022/03/27 07:03:03;;;;;;;26.83;12.07;;;;;7.50;97479.00;;;;8371931;28;20572;-71
2022/03/27 07:07:07;;;;;;;26.73;11.47;;;;;8.10;97488.00;;;;8372172;28;20255;-71
2022/03/27 07:11:10;;;;;;;29.37;12.90;;;;;8.60;97481.00;;;;8369411;28;20280;-71
2022/03/27 07:15:14;;;;;;;27.93;11.57;;;;;9.20;97489.00;;;;8383815;28;20671;-72
2022/03/27 07:19:20;;;;;;;24.77;12.20;;;;;9.60;97486.00;;;;8379867;28;20228;-72
2022/03/27 07:23:24;;;;;;;26.67;12.03;;;;;9.90;97490.00;;;;8378482;28;20219;-71
2022/03/27 07:27:27;;;;;;;22.07;11.27;;;;;10.30;97493.00;;;;8385713;28;20224;-72
2022/03/27 07:31:31;;;;;;;24.77;11.43;;;;;10.50;97494.00;;;;8384487;28;20241;-72
2022/03/27 07:35:35;;;;;;;41.23;11.67;;;;;10.80;97495.00;;;;8388945;28;20243;-72
2022/03/27 07:39:38;;;;;;;22.50;11.00;;;;;11.10;97503.00;;;;8389717;28;20707;-72
2022/03/27 07:43:41;;;;;;;25.40;11.32;;;;;11.30;97497.00;;;;8386795;28;20228;-73
2022/03/27 07:47:45;;;;;;;28.43;11.37;;;;;11.50;97510.00;;;;8387814;28;20314;-72
2022/03/27 07:51:49;;;;;;;26.73;10.60;;;;;11.60;97513.00;;;;8387591;28;20259;-73
2022/03/27 07:55:52;;;;;;;27.00;11.00;;;;;11.70;97504.00;;;;8384310;28;20226;-73
2022/03/27 07:59:56;;;;;;;24.08;10.90;;;;;11.90;97512.00;;;;8386795;28;20302;-74
2022/03/27 08:04:00;;;;;;;21.00;10.87;;;;;12.10;97513.00;;;;8383235;28;20231;-75
2022/03/27 08:08:05;;;;;;;23.48;11.05;;;;;12.30;97509.00;;;;8383770;28;20228;-75
2022/03/27 08:12:09;;;;;;;23.50;11.75;;;;;12.30;97512.00;;;;8388064;28;20662;-74
2022/03/27 08:16:14;;;;;;;25.43;11.40;;;;;12.50;97510.00;;;;8375568;28;20221;-75
2022/03/27 08:20:17;;;;;;;29.95;11.73;;;;;12.70;97512.00;;;;8381795;28;20266;-74
2022/03/27 08:24:21;;;;;;;24.92;11.43;;;;;13.10;97513.00;;;;8382040;28;20235;-75
2022/03/27 08:28:25;;;;;;;24.33;11.52;;;;;13.40;97522.00;;;;8382590;28;20229;-75
2022/03/27 08:32:28;;;;;;;21.48;10.85;;;;;13.60;97516.00;;;;8379386;28;20228;-75
2022/03/27 08:36:31;;;;;;;21.40;11.82;;;;;13.90;97523.00;;;;8372037;28;20225;-75
2022/03/27 08:40:38;;;;;;;27.33;10.90;;;;;14.20;97517.00;;;;8369181;28;20226;-74
2022/03/27 08:44:41;;;;;;;21.20;11.18;;;;;14.60;97521.00;;;;8374173;28;20228;-74
2022/03/27 08:48:45;;;;;;;21.35;11.07;;;;;15.00;97525.00;;;;8375786;28;20835;-74
2022/03/27 08:52:57;;;;;;;26.00;10.82;;;;;15.40;97525.00;;;;8373623;28;20234;-76
2022/03/27 08:57:10;;;;;;;22.73;11.38;;;;;16.10;97519.00;;;;8378598;28;20224;-76
2022/03/27 09:01:13;;;;;;;22.38;11.88;;;;;16.80;97524.00;;;;8378469;28;20251;-76
2022/03/27 09:05:17;;;;;;;21.40;10.48;;;;;17.20;97518.00;;;;8382825;28;21002;-76
2022/03/27 09:09:20;;;;;;;66.00;13.30;;;;;17.80;97519.00;;;;8372357;28;20242;-75
2022/03/27 09:13:25;;;;;;;25.02;12.02;;;;;18.10;97512.00;;;;8363102;28;20722;-75
2022/03/27 09:17:28;;;;;;;24.25;11.50;;;;;18.70;97523.00;;;;8372510;28;20314;-76
2022/03/27 09:21:31;;;;;;;21.83;10.70;;;;;18.70;97527.00;;;;8366887;28;20727;-76
2022/03/27 09:25:47;;;;;;;20.58;10.63;;;;;19.00;97525.00;;;;8371356;28;20227;-75
2022/03/27 09:30:06;;;;;;;23.25;10.60;;;;;19.70;97529.00;;;;8372129;28;20316;-75
2022/03/27 09:34:19;;;;;;;23.52;11.10;;;;;20.10;97526.00;;;;8377258;28;20266;-76
2022/03/27 09:38:22;;;;;;;21.23;11.48;;;;;20.50;97509.00;;;;8377736;28;20224;-76
2022/03/27 09:42:25;;;;;;;18.23;10.70;;;;;20.50;97511.00;;;;8376156;28;20608;-75
2022/03/27 09:46:47;;;;;;;20.35;10.50;;;;;20.40;97501.00;;;;8374940;28;20681;-74
2022/03/27 09:50:53;;;;;;;20.05;11.60;;;;;20.60;97512.00;;;;8375565;28;20619;-75
2022/03/27 09:54:57;;;;;;;26.50;11.35;;;;;21.00;97509.00;;;;8370093;28;20243;-76
2022/03/27 09:59:00;;;;;;;23.80;11.43;;;;;21.20;97503.00;;;;8376052;28;20307;-76
2022/03/27 10:03:11;;;;;;;19.23;10.93;;;;;21.30;97501.00;;;;8374613;28;20692;-76
2022/03/27 10:07:18;;;;;;;23.38;10.65;;;;;21.20;97502.00;;;;8378581;28;20319;-76
2022/03/27 10:11:22;;;;;;;22.25;10.65;;;;;21.70;97502.00;;;;8373974;28;20228;-75
2022/03/27 10:15:27;;;;;;;24.70;11.30;;;;;22.30;97499.00;;;;8367793;28;20228;-75
2022/03/27 10:19:38;;;;;;;25.50;11.90;;;;;22.80;97495.00;;;;8374464;28;20247;-75
2022/03/27 10:23:45;;;;;;;21.75;10.82;;;;;23.20;97491.00;;;;8379394;28;20226;-75
2022/03/27 10:27:48;;;;;;;17.70;11.07;;;;;23.40;97495.00;;;;8366484;28;20311;-75
2022/03/27 10:31:53;;;;;;;22.65;11.68;;;;;23.40;97476.00;;;;8375506;28;20222;-75
2022/03/27 10:36:16;;;;;;;22.35;11.05;;;;;23.40;97478.00;;;;8378550;28;20220;-76
2022/03/27 10:40:24;;;;;;;19.83;10.40;;;;;23.30;97473.00;;;;8373442;28;20620;-75
2022/03/27 10:44:36;;;;;;;19.52;10.23;;;;;23.00;97472.00;;;;8374298;28;20219;-76
2022/03/27 10:48:42;;;;;;;18.77;10.73;;;;;22.50;97470.00;;;;8369079;28;20236;-77
2022/03/27 10:53:08;;;;;;;21.25;10.40;;;;;22.10;97461.00;;;;8370663;28;20231;-76
2022/03/27 10:57:29;;;;;;;24.55;11.20;;;;;21.50;97447.00;;;;8364891;28;20246;-75
2022/03/27 11:01:43;;;;;;;24.15;10.63;;;;;21.70;97455.00;;;;8370175;28;20242;-75
2022/03/27 11:05:59;;;;;;;17.45;9.70;;;;;21.80;97458.00;;;;8371005;28;20212;-76
2022/03/27 11:10:40;;;;;;;18.67;10.10;;;;;22.20;97451.00;;;;8376622;28;20220;-76
2022/03/27 11:15:01;;;;;;;19.13;9.63;;;;;22.60;97445.00;;;;8373753;28;20430;-75
2022/03/27 11:19:05;;;;;;;21.30;10.30;;;;;21.90;97444.00;;;;8377612;28;20714;-76
2022/03/27 11:23:34;;;;;;;17.80;9.75;;;;;21.50;97435.00;;;;8377393;28;20229;-75
2022/03/27 11:27:58;;;;;;;21.50;10.45;;;;;21.10;97437.00;;;;8376430;28;20219;-75
2022/03/27 11:32:07;;;;;;;14.82;9.40;;;;;21.30;97435.00;;;;8374755;28;20216;-76
2022/03/27 11:36:24;;;;;;;20.20;9.60;;;;;21.90;97435.00;;;;8376559;28;20796;-78
2022/03/27 11:40:38;;;;;;;19.75;9.55;;;;;22.10;97428.00;;;;8374079;28;20227;-76
2022/03/27 11:49:04;;;;;;;20.45;10.48;;;;;22.20;97416.00;;;;8363044;28;20232;-75
2022/03/27 11:53:07;;;;;;;21.05;9.05;;;;;22.10;97421.00;;;;8372524;28;20227;-75
2022/03/27 11:57:11;;;;;;;18.52;9.55;;;;;22.20;97421.00;;;;8368381;28;20623;-76
2022/03/27 12:01:16;;;;;;;19.05;10.20;;;;;21.60;97410.00;;;;8377483;28;20238;-77
2022/03/27 12:05:19;;;;;;;20.90;9.05;;;;;21.00;97402.00;;;;8380325;28;20228;-76
2022/03/27 12:09:27;;;;;;;16.35;7.93;;;;;20.60;97408.00;;;;8369542;28;20239;-76
2022/03/27 12:13:35;;;;;;;12.95;6.60;;;;;20.30;97394.00;;;;8368963;28;20224;-76
2022/03/27 12:17:46;;;;;;;13.32;7.22;;;;;20.10;97406.00;;;;8381346;28;20212;-76
2022/03/27 12:21:50;;;;;;;14.65;8.25;;;;;19.80;97391.00;;;;8382162;28;20227;-77
2022/03/27 12:26:02;;;;;;;15.38;7.38;;;;;19.90;97376.00;;;;8379386;28;20541;-76
2022/03/27 12:30:05;;;;;;;14.95;7.63;;;;;19.80;97379.00;;;;8382453;28;20228;-77
2022/03/27 12:34:09;;;;;;;17.98;7.30;;;;;19.90;97379.00;;;;8376115;28;20251;-77
2022/03/27 12:38:12;;;;;;;9.82;6.70;;;;;19.90;97377.00;;;;8377556;28;20228;-76
2022/03/27 12:42:35;;;;;;;10.73;7.15;;;;;19.70;97376.00;;;;8378815;28;20235;-76
2022/03/27 12:46:49;;;;;;;13.73;7.55;;;;;19.80;97370.00;;;;8373671;28;20302;-77
2022/03/27 12:50:55;;;;;;;14.65;7.60;;;;;20.00;97366.00;;;;8374511;28;20247;-75
2022/03/27 12:55:01;;;;;;;14.57;6.93;;;;;20.00;97365.00;;;;8381616;28;20227;-75
2022/03/27 12:59:20;;;;;;;15.32;7.03;;;;;20.00;97362.00;;;;8376587;28;20239;-75
2022/03/27 13:03:23;;;;;;;11.93;6.20;;;;;20.00;97366.00;;;;8366835;28;20246;-75
2022/03/27 13:07:52;;;;;;;14.07;7.20;;;;;19.90;97355.00;;;;8378700;28;20311;-77
2022/03/27 13:11:56;;;;;;;10.23;6.63;;;;;19.80;97351.00;;;;8372438;28;20238;-77
2022/03/27 13:15:59;;;;;;;11.52;7.28;;;;;19.90;97350.00;;;;8374335;28;20320;-75
2022/03/27 13:20:03;;;;;;;11.45;6.82;;;;;20.00;97343.00;;;;8379777;28;20235;-76
2022/03/27 13:24:10;;;;;;;9.63;6.97;;;;;20.10;97345.00;;;;8370574;28;20310;-75
2022/03/27 13:28:13;;;;;;;9.32;6.75;;;;;20.00;97333.00;;;;8376300;28;20258;-76
2022/03/27 13:32:16;;;;;;;13.50;5.85;;;;;20.00;97339.00;;;;8377207;28;20252;-76
2022/03/27 13:36:20;;;;;;;8.85;5.88;;;;;20.00;97332.00;;;;8376675;28;20263;-75
2022/03/27 13:42:57;;;;;;;8.63;6.07;;;;;20.10;97334.00;;;;8374056;28;20238;-75
2022/03/27 13:44:51;;;;;;;8.73;5.80;;;;;20.10;97333.00;;;;8377256;28;20234;-75
2022/03/27 13:48:54;;;;;;;13.23;5.50;;;;;20.30;97326.00;;;;8375777;28;20234;-75
2022/03/27 13:52:58;;;;;;;8.25;5.63;;;;;20.40;97325.00;;;;8377692;28;20232;-76
2022/03/27 13:57:02;;;;;;;8.38;5.85;;;;;20.70;97319.00;;;;8375081;28;20586;-76
2022/03/27 14:01:06;;;;;;;6.80;4.88;;;;;20.90;97316.00;;;;8369450;28;20229;-75
2022/03/27 14:05:10;;;;;;;9.63;5.53;;;;;21.10;97316.00;;;;8372793;28;20235;-75
2022/03/27 14:09:13;;;;;;;10.93;5.93;;;;;21.30;97305.00;;;;8376650;28;20737;-75
2022/03/27 14:13:18;;;;;;;8.00;5.82;;;;;21.40;97303.00;;;;8380416;28;20227;-75
2022/03/27 14:17:21;;;;;;;9.52;6.50;;;;;21.50;97301.00;;;;8379543;28;21020;-76
2022/03/27 14:21:24;;;;;;;10.20;5.93;;;;;22.00;97300.00;;;;8376366;28;20234;-76
2022/03/27 14:25:28;;;;;;;11.48;5.78;;;;;22.50;97301.00;;;;8373546;28;20219;-75
2022/03/27 14:29:33;;;;;;;9.48;5.68;;;;;22.40;97300.00;;;;8381152;28;20236;-76
2022/03/27 14:33:36;;;;;;;8.75;6.35;;;;;22.40;97297.00;;;;8371841;28;20299;-76
2022/03/27 14:37:40;;;;;;;7.13;5.88;;;;;22.50;97289.00;;;;8379193;28;20223;-76
2022/03/27 14:41:43;;;;;;;11.75;6.35;;;;;22.50;97288.00;;;;8370552;28;20227;-75
2022/03/27 14:45:47;;;;;;;11.23;6.45;;;;;22.50;97294.00;;;;8374862;28;20228;-76
2022/03/27 14:49:51;;;;;;;7.97;5.80;;;;;22.60;97290.00;;;;8374150;28;20274;-75
2022/03/27 14:58:17;;;;;;;8.25;6.40;;;;;22.40;97286.00;;;;8371588;28;20251;-76
2022/03/27 15:02:21;;;;;;;8.05;5.75;;;;;22.30;97280.00;;;;8379653;28;20243;-76
2022/03/27 15:06:25;;;;;;;9.73;6.13;;;;;22.30;97277.00;;;;8370672;28;20272;-76
2022/03/27 15:10:28;;;;;;;10.48;6.40;;;;;22.10;97273.00;;;;8370525;28;20227;-76
2022/03/27 15:14:31;;;;;;;7.90;5.85;;;;;22.00;97274.00;;;;8370669;28;20902;-76
2022/03/27 15:18:36;;;;;;;9.63;6.45;;;;;22.10;97260.00;;;;8371658;28;20232;-75
2022/03/27 15:22:40;;;;;;;7.45;5.95;;;;;22.20;97269.00;;;;8374130;28;20310;-76
2022/03/27 15:26:43;;;;;;;7.93;6.07;;;;;22.00;97247.00;;;;8378595;28;20327;-75
2022/03/27 15:30:47;;;;;;;9.05;6.25;;;;;21.80;97245.00;;;;8377331;28;20304;-75
2022/03/27 15:34:51;;;;;;;9.93;5.70;;;;;21.80;97249.00;;;;8382630;28;20570;-76
2022/03/27 15:38:54;;;;;;;13.00;6.50;;;;;21.80;97248.00;;;;8380653;28;20220;-75
2022/03/27 15:43:04;;;;;;;6.78;5.45;;;;;21.60;97239.00;;;;8377512;28;20224;-76
2022/03/27 15:47:08;;;;;;;9.02;6.05;;;;;21.70;97248.00;;;;8373758;28;20312;-76
2022/03/27 15:51:12;;;;;;;10.18;5.88;;;;;21.80;97241.00;;;;8375610;28;20233;-76
2022/03/27 15:55:17;;;;;;;7.68;6.32;;;;;21.60;97241.00;;;;8380911;28;20648;-76
2022/03/27 15:59:20;;;;;;;13.45;5.72;;;;;21.60;97252.00;;;;8381808;28;20230;-76
2022/03/27 16:03:23;;;;;;;9.38;6.00;;;;;21.60;97254.00;;;;8375409;28;20327;-75
2022/03/27 16:07:28;;;;;;;6.82;5.72;;;;;21.50;97248.00;;;;8374628;28;20243;-75
2022/03/27 16:11:32;;;;;;;9.95;6.25;;;;;21.60;97246.00;;;;8375223;28;20232;-75
2022/03/27 16:15:35;;;;;;;8.35;5.47;;;;;21.60;97252.00;;;;8375320;28;20239;-76
2022/03/27 16:19:39;;;;;;;10.25;6.50;;;;;21.50;97240.00;;;;8376294;28;20223;-75
2022/03/27 16:23:45;;;;;;;7.45;5.70;;;;;21.50;97252.00;;;;8380064;28;20315;-76
2022/03/27 16:27:52;;;;;;;8.18;5.50;;;;;21.40;97248.00;;;;8379928;28;20318;-76
2022/03/27 16:31:55;;;;;;;8.35;6.03;;;;;20.90;97244.00;;;;8381977;28;20231;-76
2022/03/27 16:35:59;;;;;;;7.72;5.72;;;;;20.50;97253.00;;;;8364655;28;20220;-75
2022/03/27 16:40:04;;;;;;;9.82;6.15;;;;;20.00;97241.00;;;;8375155;28;20243;-75
2022/03/27 16:44:08;;;;;;;27.17;6.38;;;;;19.60;97247.00;;;;8378967;28;20712;-76
2022/03/27 16:48:11;;;;;;;7.50;5.90;;;;;19.40;97241.00;;;;8377789;28;20865;-76
2022/03/27 16:52:14;;;;;;;8.20;5.32;;;;;19.10;97241.00;;;;8377781;28;20788;-76
2022/03/27 16:56:19;;;;;;;6.35;5.20;;;;;18.90;97237.00;;;;8378935;28;20652;-75
2022/03/27 17:00:22;;;;;;;6.35;4.97;;;;;18.70;97241.00;;;;8375605;28;20236;-75
2022/03/27 17:04:25;;;;;;;10.13;5.38;;;;;18.50;97241.00;;;;8376006;28;20224;-75
2022/03/27 17:08:28;;;;;;;7.28;4.97;;;;;18.30;97238.00;;;;8379785;28;20234;-76
2022/03/27 17:12:33;;;;;;;6.45;5.22;;;;;18.20;97240.00;;;;8377374;28;20224;-77
2022/03/27 17:16:38;;;;;;;8.73;5.07;;;;;18.00;97239.00;;;;8372652;28;20327;-77
2022/03/27 17:20:41;;;;;;;6.65;5.68;;;;;17.80;97238.00;;;;8374313;28;20239;-76
2022/03/27 17:24:45;;;;;;;6.32;5.22;;;;;17.70;97235.00;;;;8378166;28;20235;-74
2022/03/27 17:28:49;;;;;;;7.07;5.78;;;;;17.50;97237.00;;;;8380282;28;20319;-75
2022/03/27 17:32:52;;;;;;;10.65;7.07;;;;;17.20;97241.00;;;;8379755;28;20673;-76
2022/03/27 17:36:57;;;;;;;16.70;9.45;;;;;17.00;97241.00;;;;8374552;28;20698;-75
2022/03/27 17:41:00;;;;;;;11.90;7.03;;;;;16.70;97243.00;;;;8374294;28;20330;-75
2022/03/27 17:45:07;;;;;;;12.50;7.93;;;;;16.40;97243.00;;;;8380916;28;20306;-76
2022/03/27 17:49:10;;;;;;;31.00;14.07;;;;;16.10;97234.00;;;;8379241;28;20234;-74
2022/03/27 17:53:13;;;;;;;18.50;8.80;;;;;15.90;97244.00;;;;8374675;28;20232;-76
2022/03/27 17:57:17;;;;;;;9.60;6.43;;;;;15.60;97240.00;;;;8370070;28;20232;-75
2022/03/27 18:01:21;;;;;;;9.75;6.00;;;;;15.20;97243.00;;;;8372673;28;20322;-75
2022/03/27 18:05:25;;;;;;;9.07;6.10;;;;;14.80;97248.00;;;;8394487;28;20223;-75
2022/03/27 18:10:02;;;;;;;11.50;6.88;;;;;14.40;97242.00;;;;8394093;28;20227;-76
2022/03/27 18:14:05;;;;;;;13.35;7.68;;;;;14.10;97245.00;;;;8393695;28;20255;-75
2022/03/27 18:18:09;;;;;;;10.85;6.72;;;;;13.90;97247.00;;;;8393754;28;20640;-75
2022/03/27 18:22:12;;;;;;;8.90;6.40;;;;;13.80;97253.00;;;;8393256;28;20731;-73
2022/03/27 18:26:18;;;;;;;9.05;6.03;;;;;13.60;97247.00;;;;8393113;28;20618;-75
2022/03/27 18:30:54;;;;;;;9.20;6.60;;;;;13.40;97265.00;;;;8393462;28;20310;-74
2022/03/27 18:34:59;;;;;;;11.95;7.28;;;;;13.40;97260.00;;;;8392269;28;20238;-75
2022/03/27 18:39:33;;;;;;;9.68;6.05;;;;;13.30;97265.00;;;;8392313;28;20307;-75
2022/03/27 18:43:36;;;;;;;8.93;6.30;;;;;13.20;97269.00;;;;8392437;28;20228;-75
2022/03/27 18:48:16;;;;;;;8.98;5.72;;;;;13.10;97270.00;;;;8392854;28;20218;-75
2022/03/27 18:52:21;;;;;;;10.30;6.07;;;;;13.20;97272.00;;;;8393048;28;20299;-74
2022/03/27 18:56:25;;;;;;;7.28;5.30;;;;;13.30;97273.00;;;;8392422;28;20237;-76
2022/03/27 19:00:28;;;;;;;13.70;7.25;;;;;13.40;97284.00;;;;8392176;28;20251;-76
2022/03/27 19:04:31;;;;;;;27.48;11.35;;;;;13.40;97290.00;;;;8371964;28;20231;-75
2022/03/27 19:08:37;;;;;;;15.77;7.95;;;;;13.30;97283.00;;;;8367347;28;20232;-75
2022/03/27 19:12:41;;;;;;;20.98;10.68;;;;;13.20;97282.00;;;;8370659;28;20224;-76
2022/03/27 19:16:45;;;;;;;14.00;7.93;;;;;13.20;97276.00;;;;8366889;28;20231;-76
2022/03/27 19:20:52;;;;;;;8.75;5.60;;;;;13.10;97288.00;;;;8365621;28;20224;-76
2022/03/27 19:24:56;;;;;;;9.48;6.18;;;;;12.80;97281.00;;;;8374769;28;20327;-75
2022/03/27 19:28:59;;;;;;;10.60;6.07;;;;;12.50;97283.00;;;;8376000;28;20240;-76
2022/03/27 19:33:03;;;;;;;12.35;6.07;;;;;12.30;97278.00;;;;8370823;28;20231;-75
2022/03/27 19:37:06;;;;;;;9.43;6.20;;;;;12.10;97283.00;;;;8370279;28;20618;-75
2022/03/27 19:41:11;;;;;;;9.77;6.47;;;;;11.90;97287.00;;;;8360455;28;20315;-75
2022/03/27 19:45:14;;;;;;;10.17;7.07;;;;;11.60;97282.00;;;;8365827;28;20665;-76
2022/03/27 19:49:17;;;;;;;10.23;6.88;;;;;11.40;97286.00;;;;8373384;28;20802;-75
2022/03/27 19:53:20;;;;;;;12.02;7.35;;;;;11.20;97281.00;;;;8373525;28;20231;-75
2022/03/27 19:57:25;;;;;;;22.13;7.57;;;;;11.20;97286.00;;;;8375096;28;20312;-75
2022/03/27 20:01:28;;;;;;;11.23;7.63;;;;;11.10;97283.00;;;;8377795;28;20228;-76
2022/03/27 20:05:32;;;;;;;18.87;8.43;;;;;11.00;97280.00;;;;8374440;28;20691;-76
2022/03/27 20:09:38;;;;;;;15.03;8.10;;;;;10.90;97284.00;;;;8373168;28;20234;-75
2022/03/27 20:13:43;;;;;;;16.07;7.93;;;;;10.80;97286.00;;;;8376087;28;20228;-75
2022/03/27 20:17:46;;;;;;;21.37;10.60;;;;;10.80;97288.00;;;;8373417;28;20216;-76
2022/03/27 20:21:50;;;;;;;13.27;8.80;;;;;10.80;97286.00;;;;8375369;28;20246;-76
2022/03/27 20:25:53;;;;;;;14.00;8.93;;;;;10.70;97288.00;;;;8376381;28;20741;-75
2022/03/27 20:29:57;;;;;;;13.47;8.67;;;;;10.70;97292.00;;;;8378011;28;20246;-75